createdAt,value
2023-05-19T00:01:33.892Z,5.50
2023-05-19T00:04:00.271Z,5.18
2023-05-19T00:06:26.691Z,5.09
2023-05-19T00:08:53.131Z,4.15
2023-05-19T00:11:19.535Z,4.00
2023-05-19T00:13:45.945Z,4.82
2023-05-19T00:16:12.407Z,5.26
2023-05-19T00:18:38.909Z,5.24
2023-05-19T00:21:05.380Z,6.30
2023-05-19T00:23:31.790Z,9.77
2023-05-19T00:25:58.195Z,8.57
2023-05-19T00:28:24.595Z,6.57
2023-05-19T00:30:50.985Z,6.20
2023-05-19T00:33:17.361Z,8.84
2023-05-19T00:35:43.724Z,8.24
2023-05-19T00:38:10.134Z,6.88
2023-05-19T00:40:36.543Z,5.86
2023-05-19T00:43:02.924Z,5.94
2023-05-19T00:45:29.385Z,4.59
2023-05-19T00:47:55.847Z,3.93
2023-05-19T00:50:22.291Z,3.69
2023-05-19T00:52:48.660Z,4.60
2023-05-19T00:55:15.028Z,5.29
2023-05-19T00:57:41.430Z,5.45
2023-05-19T01:00:07.812Z,6.48
2023-05-19T01:02:34.354Z,6.94
2023-05-19T01:05:00.807Z,6.53
2023-05-19T01:07:27.214Z,6.32
2023-05-19T01:09:53.594Z,13.51
2023-05-19T01:12:19.994Z,14.20
2023-05-19T01:14:46.383Z,8.01
2023-05-19T01:17:12.754Z,6.33
2023-05-19T01:19:39.178Z,5.82
2023-05-19T01:22:05.591Z,5.31
2023-05-19T01:24:31.978Z,9.20
2023-05-19T01:26:58.378Z,9.91
2023-05-19T01:29:24.842Z,9.62
2023-05-19T01:31:51.254Z,8.75
2023-05-19T01:34:17.676Z,6.67
2023-05-19T01:36:44.116Z,5.91
2023-05-19T01:39:10.509Z,5.83
2023-05-19T01:41:36.878Z,10.56
2023-05-19T01:44:03.302Z,12.88
2023-05-19T01:46:29.803Z,7.57
2023-05-19T01:48:56.242Z,7.31
2023-05-19T01:51:22.765Z,5.61
2023-05-19T01:53:49.128Z,5.44
2023-05-19T01:56:15.557Z,5.05
2023-05-19T01:58:42.039Z,4.84
2023-05-19T02:01:08.497Z,6.07
2023-05-19T02:03:34.921Z,11.82
2023-05-19T02:06:01.325Z,9.87
2023-05-19T02:08:27.762Z,6.60
2023-05-19T02:10:54.156Z,4.47
2023-05-19T02:13:20.537Z,4.35
2023-05-19T02:15:46.964Z,3.96
2023-05-19T02:18:13.372Z,4.18
2023-05-19T02:20:39.776Z,4.24
2023-05-19T02:23:06.174Z,3.94
2023-05-19T02:25:32.562Z,4.20
2023-05-19T02:27:58.934Z,3.83
2023-05-19T02:30:25.339Z,3.92
2023-05-19T02:32:51.768Z,3.89
2023-05-19T02:35:18.179Z,4.02
2023-05-19T02:37:44.582Z,4.38
2023-05-19T02:40:11.044Z,3.84
2023-05-19T02:42:37.495Z,4.04
2023-05-19T02:45:03.906Z,3.77
2023-05-19T02:47:30.310Z,3.94
2023-05-19T02:49:56.731Z,3.71
2023-05-19T02:52:23.111Z,4.33
2023-05-19T02:54:49.494Z,4.47
2023-05-19T02:57:15.889Z,4.57
2023-05-19T02:59:42.315Z,4.99
2023-05-19T03:02:08.739Z,4.85
2023-05-19T03:04:35.130Z,4.74
2023-05-19T03:07:01.518Z,4.83
2023-05-19T03:09:27.894Z,4.29
2023-05-19T03:11:54.281Z,4.04
2023-05-19T03:14:20.656Z,4.13
2023-05-19T03:16:47.223Z,4.12
2023-05-19T03:19:13.763Z,3.99
2023-05-19T03:21:40.166Z,4.02
2023-05-19T03:24:06.636Z,3.84
2023-05-19T03:26:33.034Z,3.77
2023-05-19T03:28:59.434Z,3.82
2023-05-19T03:31:25.847Z,4.08
2023-05-19T03:33:52.282Z,4.20
2023-05-19T03:36:18.702Z,4.53
2023-05-19T03:38:45.111Z,4.07
2023-05-19T03:41:11.554Z,4.17
2023-05-19T03:43:37.970Z,3.94
2023-05-19T03:46:04.397Z,3.98
2023-05-19T03:48:30.895Z,3.99
2023-05-19T03:50:57.292Z,3.98
2023-05-19T03:53:23.689Z,4.19
2023-05-19T03:55:50.094Z,4.54
2023-05-19T03:58:16.467Z,4.62
2023-05-19T04:00:42.854Z,4.55
2023-05-19T04:03:09.396Z,4.57
2023-05-19T04:05:36.016Z,4.63
2023-05-19T04:08:02.458Z,4.43
2023-05-19T04:10:28.869Z,4.81
2023-05-19T04:12:55.231Z,5.30
2023-05-19T04:15:21.646Z,4.85
2023-05-19T04:17:48.197Z,4.48
2023-05-19T04:20:14.680Z,4.36
2023-05-19T04:22:41.080Z,4.78
2023-05-19T04:25:07.485Z,5.02
2023-05-19T04:27:33.866Z,4.98
2023-05-19T04:30:00.240Z,5.15
2023-05-19T04:32:26.685Z,5.37
2023-05-19T04:34:53.119Z,5.13
2023-05-19T04:37:19.518Z,5.18
2023-05-19T04:39:45.878Z,5.79
2023-05-19T04:42:12.293Z,6.14
2023-05-19T04:44:39.716Z,6.57
2023-05-19T04:47:06.372Z,6.66
2023-05-19T04:49:32.980Z,6.65
2023-05-19T04:51:59.369Z,6.81
2023-05-19T04:54:25.792Z,6.81
2023-05-19T04:56:52.145Z,6.84
2023-05-19T04:59:18.564Z,6.55
2023-05-19T05:01:45.045Z,6.37
2023-05-19T05:04:11.552Z,6.58
2023-05-19T05:06:38.047Z,6.15
2023-05-19T05:09:04.446Z,6.00
2023-05-19T05:11:30.841Z,6.48
2023-05-19T05:13:57.266Z,6.58
2023-05-19T05:16:23.711Z,6.65
2023-05-19T05:18:50.193Z,6.53
2023-05-19T05:21:16.642Z,6.46
2023-05-19T05:23:43.019Z,6.48
2023-05-19T05:26:09.499Z,6.27
2023-05-19T05:28:35.910Z,6.33
2023-05-19T05:31:02.302Z,6.71
2023-05-19T05:33:28.839Z,6.37
2023-05-19T05:35:55.251Z,6.87
2023-05-19T05:38:21.641Z,6.57
2023-05-19T05:40:48.036Z,6.73
2023-05-19T05:43:14.424Z,10.13
2023-05-19T05:45:40.849Z,7.52
2023-05-19T05:48:07.279Z,6.76
2023-05-19T05:50:33.761Z,7.02
2023-05-19T05:53:00.189Z,6.64
2023-05-19T05:55:26.605Z,9.62
2023-05-19T05:57:53.041Z,8.80
2023-05-19T06:00:19.472Z,8.57
2023-05-19T06:02:46.021Z,7.04
2023-05-19T06:05:12.549Z,6.81
2023-05-19T06:07:38.985Z,6.88
2023-05-19T06:10:05.365Z,7.62
2023-05-19T06:12:31.848Z,7.37
2023-05-19T06:14:58.256Z,7.02
2023-05-19T06:17:27.154Z,8.65
2023-05-19T06:19:53.625Z,7.96
2023-05-19T06:22:20.055Z,6.79
2023-05-19T06:24:46.481Z,7.16
2023-05-19T06:27:12.894Z,6.80
2023-05-19T06:29:39.281Z,7.02
2023-05-19T06:32:05.708Z,6.75
2023-05-19T06:34:32.190Z,6.72
2023-05-19T06:36:58.616Z,7.11
2023-05-19T06:39:24.993Z,7.12
2023-05-19T06:41:51.436Z,7.34
2023-05-19T06:44:20.461Z,9.68
2023-05-19T06:46:47.510Z,10.31
2023-05-19T06:49:13.951Z,10.27
2023-05-19T06:51:40.345Z,9.03
2023-05-19T06:54:06.800Z,7.59
2023-05-19T06:56:33.195Z,7.52
2023-05-19T06:58:59.617Z,7.45
2023-05-19T07:01:26.037Z,7.24
2023-05-19T07:03:52.630Z,6.94
2023-05-19T07:06:19.195Z,7.29
2023-05-19T07:08:45.634Z,7.42
2023-05-19T07:11:12.273Z,7.53
2023-05-19T07:13:38.714Z,7.55
2023-05-19T07:16:05.110Z,7.24
2023-05-19T07:18:31.536Z,7.66
2023-05-19T07:20:57.926Z,7.51
2023-05-19T07:23:24.298Z,7.51
2023-05-19T07:25:50.683Z,7.67
2023-05-19T07:28:17.094Z,7.87
2023-05-19T07:30:43.503Z,7.55
2023-05-19T07:33:09.946Z,7.41
2023-05-19T07:35:36.364Z,7.74
2023-05-19T07:38:02.777Z,7.38
2023-05-19T07:40:29.129Z,7.69
2023-05-19T07:42:55.517Z,7.87
2023-05-19T07:45:22.088Z,7.76
2023-05-19T07:47:48.618Z,8.04
2023-05-19T07:50:15.102Z,8.25
2023-05-19T07:52:41.536Z,8.16
2023-05-19T07:55:07.933Z,8.38
2023-05-19T07:57:34.404Z,8.65
2023-05-19T08:00:00.811Z,7.91
2023-05-19T08:02:27.399Z,8.33
2023-05-19T08:04:53.961Z,8.41
2023-05-19T08:07:20.429Z,8.37
2023-05-19T08:09:46.806Z,8.46
2023-05-19T08:12:13.236Z,8.52
2023-05-19T08:14:39.663Z,8.56
2023-05-19T08:17:06.101Z,8.08
2023-05-19T08:19:32.506Z,7.65
2023-05-19T08:21:58.966Z,7.54
2023-05-19T08:24:25.359Z,8.11
2023-05-19T08:26:51.763Z,8.01
2023-05-19T08:29:18.165Z,8.03
2023-05-19T08:31:44.620Z,8.02
2023-05-19T08:34:11.087Z,8.22
2023-05-19T08:36:37.695Z,8.70
2023-05-19T08:39:04.120Z,8.36
2023-05-19T08:41:30.521Z,8.68
2023-05-19T08:43:56.968Z,9.34
2023-05-19T08:46:23.386Z,9.18
2023-05-19T08:48:49.866Z,8.83
2023-05-19T08:51:16.369Z,9.11
2023-05-19T08:53:42.869Z,9.31
2023-05-19T08:56:09.307Z,9.34
2023-05-19T08:58:35.743Z,9.32
2023-05-19T09:01:02.190Z,8.90
2023-05-19T09:03:28.711Z,9.68
2023-05-19T09:05:55.319Z,9.54
2023-05-19T09:08:21.788Z,9.30
2023-05-19T09:10:48.245Z,9.44
2023-05-19T09:13:14.681Z,9.64
2023-05-19T09:15:41.152Z,9.42
2023-05-19T09:18:07.538Z,9.20
2023-05-19T09:20:33.943Z,9.47
2023-05-19T09:23:00.425Z,9.92
2023-05-19T09:25:26.827Z,9.61
2023-05-19T09:27:53.269Z,10.00
2023-05-19T09:30:19.714Z,9.44
2023-05-19T09:32:48.416Z,10.14
2023-05-19T09:35:14.870Z,9.56
2023-05-19T09:37:41.269Z,9.74
2023-05-19T09:40:07.686Z,9.29
2023-05-19T09:42:34.088Z,9.49
2023-05-19T09:45:00.512Z,9.85
2023-05-19T09:47:27.010Z,9.78
2023-05-19T09:49:53.481Z,9.39
2023-05-19T09:52:19.919Z,9.77
2023-05-19T09:54:46.349Z,9.64
2023-05-19T09:57:12.729Z,9.61
2023-05-19T09:59:39.119Z,9.47
2023-05-19T10:02:05.578Z,9.67
2023-05-19T10:04:32.206Z,9.52
2023-05-19T10:06:58.678Z,9.44
2023-05-19T10:09:25.149Z,9.62
2023-05-19T10:11:51.592Z,10.01
2023-05-19T10:14:18.049Z,9.78
2023-05-19T10:16:44.503Z,9.94
2023-05-19T10:19:10.968Z,9.64
2023-05-19T10:21:37.355Z,9.74
2023-05-19T10:24:03.740Z,9.64
2023-05-19T10:26:30.126Z,9.33
2023-05-19T10:28:56.494Z,8.77
2023-05-19T10:31:22.894Z,8.04
2023-05-19T10:33:49.302Z,8.65
2023-05-19T10:36:15.716Z,8.72
2023-05-19T10:38:42.129Z,8.59
2023-05-19T10:41:09.005Z,8.01
2023-05-19T10:43:35.427Z,8.43
2023-05-19T10:46:01.931Z,11.94
2023-05-19T10:48:28.298Z,9.27
2023-05-19T10:50:54.750Z,8.22
2023-05-19T10:53:21.175Z,8.08
2023-05-19T10:55:47.616Z,8.13
2023-05-19T10:58:14.021Z,7.77
2023-05-19T11:00:40.439Z,7.47
2023-05-19T11:03:06.945Z,7.89
2023-05-19T11:05:33.619Z,9.72
2023-05-19T11:08:00.168Z,9.38
2023-05-19T11:10:26.534Z,9.43
2023-05-19T11:12:52.913Z,9.54
2023-05-19T11:15:19.333Z,9.49
2023-05-19T11:17:45.762Z,9.58
2023-05-19T11:20:12.170Z,9.88
2023-05-19T11:22:38.619Z,10.10
2023-05-19T11:25:05.040Z,10.46
2023-05-19T11:27:31.751Z,9.77
2023-05-19T11:29:58.306Z,9.44
2023-05-19T11:32:24.829Z,8.98
2023-05-19T11:34:51.314Z,9.21
2023-05-19T11:37:17.718Z,9.53
2023-05-19T11:39:44.093Z,9.27
2023-05-19T11:42:10.532Z,8.72
2023-05-19T11:44:36.992Z,9.11
2023-05-19T11:47:03.387Z,9.88
2023-05-19T11:49:29.804Z,9.51
2023-05-19T11:51:56.278Z,9.09
2023-05-19T11:54:22.735Z,11.65
2023-05-19T11:56:49.167Z,11.73
2023-05-19T11:59:15.559Z,9.25
2023-05-19T12:01:41.964Z,8.59
2023-05-19T12:04:08.366Z,8.52
2023-05-19T12:06:34.813Z,8.75
2023-05-19T12:09:01.228Z,9.11
2023-05-19T12:11:27.703Z,8.84
2023-05-19T12:13:54.135Z,8.72
2023-05-19T12:16:20.578Z,8.66
2023-05-19T12:18:47.046Z,8.81
2023-05-19T12:21:13.556Z,9.28
2023-05-19T12:23:39.930Z,9.34
2023-05-19T12:26:06.370Z,9.16
2023-05-19T12:28:32.860Z,9.11
2023-05-19T12:30:59.310Z,9.29
2023-05-19T12:33:25.850Z,8.72
2023-05-19T12:35:52.360Z,9.02
2023-05-19T12:38:18.819Z,8.83
2023-05-19T12:40:45.210Z,9.04
2023-05-19T12:43:11.605Z,8.61
2023-05-19T12:45:38.035Z,8.48
2023-05-19T12:48:04.634Z,8.29
2023-05-19T12:50:31.372Z,8.69
2023-05-19T12:52:58.119Z,9.29
2023-05-19T12:55:24.522Z,8.37
2023-05-19T12:57:50.959Z,8.62
2023-05-19T13:00:17.436Z,8.70
2023-05-19T13:02:43.929Z,8.67
2023-05-19T13:05:10.425Z,8.27
2023-05-19T13:07:36.838Z,8.35
2023-05-19T13:10:03.321Z,8.27
2023-05-19T13:12:29.760Z,8.19
2023-05-19T13:14:56.155Z,7.85
2023-05-19T13:17:22.580Z,8.13
2023-05-19T13:19:49.013Z,8.09
2023-05-19T13:22:15.494Z,7.94
2023-05-19T13:24:41.920Z,7.85
2023-05-19T13:27:08.329Z,7.34
2023-05-19T13:29:34.771Z,8.23
2023-05-19T13:32:01.627Z,8.60
2023-05-19T13:34:28.136Z,8.23
2023-05-19T13:36:54.534Z,8.01
2023-05-19T13:39:23.454Z,7.87
2023-05-19T13:41:49.952Z,7.30
2023-05-19T13:44:16.502Z,8.06
2023-05-19T13:46:45.417Z,8.46
2023-05-19T13:49:12.938Z,8.21
2023-05-19T13:51:39.351Z,8.64
2023-05-19T13:54:05.857Z,8.12
2023-05-19T13:56:32.310Z,8.06
2023-05-19T13:58:58.754Z,7.88
2023-05-19T14:01:25.168Z,8.19
2023-05-19T14:03:51.896Z,8.46
2023-05-19T14:06:18.456Z,8.82
2023-05-19T14:08:44.900Z,8.22
2023-05-19T14:11:11.343Z,8.25
2023-05-19T14:13:41.106Z,7.94
2023-05-19T14:16:09.812Z,7.96
2023-05-19T14:18:36.402Z,7.53
2023-05-19T14:21:02.859Z,8.00
2023-05-19T14:23:29.321Z,7.49
2023-05-19T14:25:55.748Z,7.89
2023-05-19T14:28:22.194Z,7.95
2023-05-19T14:30:48.891Z,9.27
2023-05-19T14:33:15.403Z,7.73
2023-05-19T14:35:41.935Z,7.67
2023-05-19T14:38:10.796Z,8.14
2023-05-19T14:40:37.213Z,7.65
2023-05-19T14:43:03.656Z,7.76
2023-05-19T14:45:30.071Z,7.93
2023-05-19T14:47:56.547Z,8.41
2023-05-19T14:50:22.980Z,8.58
2023-05-19T14:52:49.482Z,10.31
2023-05-19T14:55:15.954Z,10.06
2023-05-19T14:57:42.377Z,9.20
2023-05-19T15:00:08.872Z,8.81
2023-05-19T15:02:35.415Z,8.74
2023-05-19T15:05:01.990Z,8.69
2023-05-19T15:07:28.461Z,9.03
2023-05-19T15:09:54.926Z,9.45
2023-05-19T15:12:21.485Z,9.20
2023-05-19T15:14:47.893Z,9.27
2023-05-19T15:17:14.486Z,9.88
2023-05-19T15:19:41.027Z,9.72
2023-05-19T15:22:07.471Z,9.21
2023-05-19T15:24:33.968Z,9.28
2023-05-19T15:27:00.386Z,9.22
2023-05-19T15:29:26.811Z,9.21
2023-05-19T15:31:53.227Z,8.83
2023-05-19T15:34:19.806Z,8.74
2023-05-19T15:36:46.288Z,8.95
2023-05-19T15:39:12.746Z,9.78
2023-05-19T15:41:39.294Z,9.78
2023-05-19T15:44:05.735Z,8.57
2023-05-19T15:46:32.148Z,8.01
2023-05-19T15:48:58.600Z,8.30
2023-05-19T15:51:25.082Z,8.03
2023-05-19T15:53:51.474Z,7.75
2023-05-19T15:56:17.910Z,7.24
2023-05-19T15:58:44.374Z,7.37
2023-05-19T16:01:10.798Z,11.40
2023-05-19T16:03:37.301Z,17.80
2023-05-19T16:06:03.849Z,10.46
2023-05-19T16:08:30.286Z,10.31
2023-05-19T16:10:56.674Z,8.22
2023-05-19T16:13:23.073Z,8.30
2023-05-19T16:15:49.531Z,8.14
2023-05-19T16:18:16.020Z,7.94
2023-05-19T16:20:42.498Z,8.10
2023-05-19T16:23:09.096Z,7.89
2023-05-19T16:25:35.520Z,8.35
2023-05-19T16:28:01.932Z,8.67
2023-05-19T16:30:28.367Z,8.36
2023-05-19T16:32:54.828Z,7.74
2023-05-19T16:35:21.392Z,8.50
2023-05-19T16:37:47.841Z,8.54
2023-05-19T16:40:14.242Z,8.87
2023-05-19T16:42:40.621Z,8.74
2023-05-19T16:45:07.039Z,8.54
2023-05-19T16:47:33.523Z,9.10
2023-05-19T16:49:59.982Z,9.55
2023-05-19T16:52:26.409Z,9.20
2023-05-19T16:54:52.827Z,9.22
2023-05-19T16:57:19.416Z,9.57
2023-05-19T16:59:45.807Z,9.99
2023-05-19T17:02:12.241Z,9.50
2023-05-19T17:04:38.741Z,9.27
2023-05-19T17:07:05.181Z,9.03
2023-05-19T17:09:31.685Z,9.11
2023-05-19T17:11:58.112Z,9.10
2023-05-19T17:14:24.556Z,9.02
2023-05-19T17:16:51.033Z,8.90
2023-05-19T17:19:17.716Z,8.84
2023-05-19T17:21:44.188Z,8.21
2023-05-19T17:24:10.702Z,7.78
2023-05-19T17:26:37.129Z,8.20
2023-05-19T17:29:03.591Z,8.11
2023-05-19T17:31:30.055Z,7.92
2023-05-19T17:33:56.510Z,8.00
2023-05-19T17:36:22.911Z,7.84
2023-05-19T17:38:49.361Z,7.26
2023-05-19T17:41:15.900Z,7.55
2023-05-19T17:43:42.370Z,7.54
2023-05-19T17:46:08.855Z,7.35
2023-05-19T17:48:35.303Z,7.80
2023-05-19T17:51:02.720Z,7.56
2023-05-19T17:53:30.346Z,8.30
2023-05-19T17:55:56.867Z,8.03
2023-05-19T17:58:23.339Z,8.47
2023-05-19T18:00:49.761Z,7.60
2023-05-19T18:03:16.347Z,7.62
2023-05-19T18:05:42.894Z,7.21
2023-05-19T18:08:09.548Z,6.84
2023-05-19T18:10:36.125Z,6.94
2023-05-19T18:13:02.553Z,6.60
2023-05-19T18:15:29.007Z,6.68
2023-05-19T18:17:55.547Z,6.75
2023-05-19T18:20:21.991Z,6.59
2023-05-19T18:22:48.438Z,8.04
2023-05-19T18:25:14.888Z,6.83
2023-05-19T18:27:41.377Z,6.19
2023-05-19T18:30:07.812Z,6.28
2023-05-19T18:32:34.319Z,6.47
2023-05-19T18:35:00.784Z,6.58
2023-05-19T18:37:27.221Z,6.67
2023-05-19T18:39:53.671Z,7.28
2023-05-19T18:42:20.077Z,6.71
2023-05-19T18:44:46.512Z,6.90
2023-05-19T18:47:12.946Z,6.54
2023-05-19T18:49:39.376Z,6.36
2023-05-19T18:52:05.853Z,6.43
2023-05-19T18:54:32.289Z,6.41
2023-05-19T18:56:58.768Z,6.39
2023-05-19T18:59:25.284Z,6.37
2023-05-19T19:01:51.702Z,6.20
2023-05-19T19:04:18.226Z,6.87
2023-05-19T19:06:44.676Z,6.52
2023-05-19T19:09:11.074Z,6.61
2023-05-19T19:11:37.489Z,6.70
2023-05-19T19:14:04.014Z,6.59
2023-05-19T19:16:30.501Z,6.45
2023-05-19T19:18:56.999Z,6.46
2023-05-19T19:21:23.573Z,6.54
2023-05-19T19:23:50.060Z,6.45
2023-05-19T19:26:16.570Z,6.15
2023-05-19T19:28:43.178Z,7.06
2023-05-19T19:31:09.635Z,8.47
2023-05-19T19:33:36.146Z,7.39
2023-05-19T19:36:03.889Z,6.42
2023-05-19T19:38:30.321Z,6.40
2023-05-19T19:40:56.753Z,6.21
2023-05-19T19:43:23.165Z,6.05
2023-05-19T19:45:49.598Z,6.36
2023-05-19T19:48:16.010Z,6.17
2023-05-19T19:50:42.440Z,6.38
2023-05-19T19:53:08.967Z,5.99
2023-05-19T19:55:35.467Z,6.30
2023-05-19T19:58:01.896Z,6.46
2023-05-19T20:00:28.347Z,6.07
2023-05-19T20:03:04.955Z,6.50
2023-05-19T20:05:32.482Z,6.45
2023-05-19T20:07:59.024Z,6.82
2023-05-19T20:10:25.454Z,6.95
2023-05-19T20:12:52.145Z,6.63
2023-05-19T20:15:18.600Z,6.65
2023-05-19T20:17:45.062Z,6.75
2023-05-19T20:20:11.524Z,6.60
2023-05-19T20:22:37.968Z,6.53
2023-05-19T20:25:04.391Z,6.37
2023-05-19T20:27:30.878Z,6.37
2023-05-19T20:29:57.311Z,6.39
2023-05-19T20:32:23.761Z,6.25
2023-05-19T20:34:50.399Z,5.99
2023-05-19T20:37:16.807Z,6.03
2023-05-19T20:39:43.299Z,6.22
2023-05-19T20:42:09.700Z,6.49
2023-05-19T20:44:36.129Z,6.33
2023-05-19T20:47:02.608Z,6.31
2023-05-19T20:49:29.046Z,6.65
2023-05-19T20:51:55.515Z,6.26
2023-05-19T20:54:22.052Z,6.38
2023-05-19T20:56:48.686Z,6.21
2023-05-19T20:59:15.108Z,6.24
2023-05-19T21:01:41.606Z,6.33
2023-05-19T21:04:08.261Z,6.04
2023-05-19T21:06:34.768Z,6.38
2023-05-19T21:09:01.250Z,6.12
2023-05-19T21:11:27.726Z,6.10
2023-05-19T21:13:54.145Z,6.51
2023-05-19T21:16:20.710Z,6.63
2023-05-19T21:18:47.274Z,6.49
2023-05-19T21:21:13.765Z,6.32
2023-05-19T21:23:40.168Z,6.34
2023-05-19T21:26:06.730Z,6.47
2023-05-19T21:28:33.179Z,6.50
2023-05-19T21:30:59.735Z,6.62
2023-05-19T21:33:26.206Z,6.56
2023-05-19T21:35:52.653Z,6.17
2023-05-19T21:38:24.345Z,6.62
2023-05-19T21:40:50.928Z,6.53
2023-05-19T21:43:17.371Z,6.78
2023-05-19T21:45:43.825Z,6.78
2023-05-19T21:48:10.346Z,6.00
2023-05-19T21:50:36.786Z,6.18
2023-05-19T21:53:03.297Z,6.47
2023-05-19T21:55:29.852Z,6.41
2023-05-19T21:57:56.295Z,6.48
2023-05-19T22:00:22.716Z,6.30
2023-05-19T22:02:49.273Z,6.71
2023-05-19T22:05:15.791Z,6.69
2023-05-19T22:07:42.241Z,6.95
2023-05-19T22:10:08.682Z,6.73
2023-05-19T22:12:35.190Z,6.47
2023-05-19T22:15:01.679Z,6.22
2023-05-19T22:17:28.249Z,6.68
2023-05-19T22:19:54.800Z,6.40
2023-05-19T22:22:21.364Z,6.49
2023-05-19T22:24:47.800Z,6.70
2023-05-19T22:27:14.240Z,6.73
2023-05-19T22:29:40.704Z,7.02
2023-05-19T22:32:07.190Z,6.86
2023-05-19T22:34:33.681Z,7.03
2023-05-19T22:37:00.117Z,6.89
2023-05-19T22:39:26.576Z,6.83
2023-05-19T22:41:52.972Z,6.43
2023-05-19T22:44:19.407Z,6.69
2023-05-19T22:46:45.829Z,6.47
2023-05-19T22:49:12.240Z,6.84
2023-05-19T22:51:38.670Z,6.93
2023-05-19T22:54:05.093Z,6.64
2023-05-19T22:56:31.495Z,6.84
2023-05-19T22:58:57.956Z,6.98
2023-05-19T23:01:24.678Z,6.79
2023-05-19T23:03:51.187Z,6.71
2023-05-19T23:06:17.604Z,6.62
2023-05-19T23:08:44.829Z,6.96
2023-05-19T23:11:12.023Z,6.87
2023-05-19T23:13:38.441Z,7.33
2023-05-19T23:16:04.894Z,6.93
2023-05-19T23:18:31.304Z,7.02
2023-05-19T23:20:57.737Z,7.35
2023-05-19T23:23:24.212Z,6.69
2023-05-19T23:25:50.689Z,7.13
2023-05-19T23:28:17.144Z,7.04
2023-05-19T23:30:43.548Z,7.01
2023-05-19T23:33:10.047Z,6.99
2023-05-19T23:35:36.692Z,7.57
2023-05-19T23:38:03.154Z,7.92
2023-05-19T23:40:29.631Z,7.19
2023-05-19T23:42:56.096Z,7.16
2023-05-19T23:45:22.505Z,7.48
2023-05-19T23:47:48.975Z,7.69
2023-05-19T23:50:15.456Z,7.72
2023-05-19T23:52:41.902Z,7.60
2023-05-19T23:55:08.530Z,7.81
2023-05-19T23:57:34.998Z,7.70
